Аэропорт: Белгород . Белгород

ICAO: UUOB

METAR:
2021-07-28 14:30:00
UUOB 281430Z 23002MPS CAVOK 27/15 Q1014 R29/010060 NOSIG
METAR:
Информация по данной станции не доступна